Ana Sayfa
METAR-TAF:

METAR-TAF

Havaalanları :

Lima, Peru

Enlem: 12-00S, Boylam: 077-07W, yükseklik: 12 m

Güncel hava durumu gözlemi

Rapor saat 05:00 UTC de 26 dakika önce yapıldı.
Rüzgar güneydan 4 kt
Sıcaklık 20°C
Nem 88%
Basınç 1011 hPa
Görüş mesafesi 10 km veya daha fazla
1500 m altında bulut yok ve kümülonimbus yok

METAR: SPJC 200500Z 19004KT CAVOK 20/18 Q1011 NOSIG RMK PP000

Saat: 00:26 (05:26 UTC)

Tahmin

Rapor saat 17:00 UTC de 12 saat ve 26 dakika önce yapıldı.
Ayın 19'si saat 18 UTC'den ayın 20'si saat 18 UTC'ye kadar geçerli Tahmin
Rüzgar batıdan 7 kt
Görüş mesafesi: 8000 m
1000 ft yükseklikte parçalı çok bulutlu
600 ft yükseklikte parçalı çok bulutlu
7000 ft yükseklikte çok bulutlu

TAF: SPJC 191700Z 1918/2018 26007KT 8000 BKN010 TX24/1920Z TN18/2011Z BKN006 OVC070

4.000'den fazla havaalanı için hava durumu gözlemleri ve tahminleri (METAR ve TAF raporları).

Kullanılabilir istasyonlar harita üzerinde sarı ve kırmızı noktalarla gösterilir.

İstasyonun adını görmek için fareyi noktanın üzerinde gezdirin.

Sonrasında hava gözlem ve tahminlerini görmek için tıklayın.

Haritayı değiştirmek için: yaklaştırmak için siyah artı işaretli yeşil düğmeye ve uzaklaştırmak için de eksi işaretli düğmeye hızla tıklayın; bitişik haritalar için yeşil okları kullanın.


METAR-TAF: